createdAt,value
2023-02-03T00:01:44.922Z,8.00
2023-02-03T00:04:11.578Z,17.23
2023-02-03T00:06:38.178Z,5.75
2023-02-03T00:09:04.979Z,5.28
2023-02-03T00:11:31.674Z,6.95
2023-02-03T00:13:58.363Z,4.90
2023-02-03T00:16:25.029Z,12.07
2023-02-03T00:18:51.790Z,3.55
2023-02-03T00:21:18.506Z,13.70
2023-02-03T00:23:45.204Z,5.25
2023-02-03T00:26:13.817Z,4.85
2023-02-03T00:28:40.421Z,4.93
2023-02-03T00:31:08.274Z,5.47
2023-02-03T00:33:35.071Z,2.95
2023-02-03T00:36:06.222Z,3.83
2023-02-03T00:38:32.821Z,2.28
2023-02-03T00:40:59.501Z,3.05
2023-02-03T00:43:26.231Z,9.32
2023-02-03T00:45:52.962Z,5.57
2023-02-03T00:48:20.714Z,4.28
2023-02-03T00:50:47.726Z,4.78
2023-02-03T00:53:14.375Z,8.23
2023-02-03T00:55:42.952Z,9.18
2023-02-03T00:58:09.609Z,10.25
2023-02-03T01:00:36.220Z,3.00
2023-02-03T01:03:03.514Z,3.17
2023-02-03T01:05:30.251Z,4.22
2023-02-03T01:07:56.933Z,7.30
2023-02-03T01:10:23.616Z,3.83
2023-02-03T01:12:50.370Z,3.38
2023-02-03T01:15:17.072Z,7.32
2023-02-03T01:17:43.782Z,2.72
2023-02-03T01:20:12.391Z,3.50
2023-02-03T01:22:38.952Z,3.45
2023-02-03T01:25:05.976Z,3.55
2023-02-03T01:27:33.315Z,3.78
2023-02-03T01:30:00.014Z,5.93
2023-02-03T01:32:27.168Z,4.30
2023-02-03T01:34:53.779Z,5.03
2023-02-03T01:37:20.537Z,2.70
2023-02-03T01:39:47.141Z,3.33
2023-02-03T01:42:14.463Z,3.72
2023-02-03T01:44:43.442Z,5.45
2023-02-03T01:47:16.360Z,3.53
2023-02-03T01:49:45.479Z,4.13
2023-02-03T01:52:12.168Z,4.10
2023-02-03T01:54:41.520Z,4.90
2023-02-03T01:57:13.455Z,4.25
2023-02-03T01:59:40.149Z,4.63
2023-02-03T02:02:06.844Z,2.90
2023-02-03T02:05:07.038Z,1.88
2023-02-03T02:07:34.525Z,1.67
2023-02-03T02:10:01.307Z,2.65
2023-02-03T02:12:27.895Z,1.85
2023-02-03T02:14:54.542Z,1.30
2023-02-03T02:17:58.650Z,0.70
2023-02-03T02:20:32.639Z,1.02
2023-02-03T02:23:17.846Z,1.20
2023-02-03T02:25:48.837Z,0.80
2023-02-03T02:28:44.711Z,3.05
2023-02-03T02:31:17.520Z,1.65
2023-02-03T02:33:45.995Z,0.83
2023-02-03T02:36:25.513Z,1.25
2023-02-03T02:38:59.704Z,0.80
2023-02-03T02:41:47.352Z,1.95
2023-02-03T02:44:17.788Z,1.58
2023-02-03T02:46:52.888Z,2.35
2023-02-03T02:49:40.201Z,5.07
2023-02-03T02:52:07.017Z,2.25
2023-02-03T02:54:33.777Z,4.50
2023-02-03T02:57:01.960Z,8.60
2023-02-03T02:59:28.729Z,1.08
2023-02-03T03:01:55.537Z,2.30
2023-02-03T03:04:25.077Z,1.13
2023-02-03T03:06:58.538Z,2.05
2023-02-03T03:09:36.092Z,1.80
2023-02-03T03:12:15.202Z,0.70
2023-02-03T03:14:44.867Z,1.90
2023-02-03T03:17:12.316Z,1.50
2023-02-03T03:19:41.938Z,1.33
2023-02-03T03:22:09.906Z,2.30
2023-02-03T03:24:49.293Z,1.83
2023-02-03T03:27:23.669Z,5.32
2023-02-03T03:29:58.493Z,2.42
2023-02-03T03:32:25.168Z,1.92
2023-02-03T03:34:51.820Z,3.90
2023-02-03T03:37:42.909Z,4.22
2023-02-03T03:40:29.063Z,2.22
2023-02-03T03:43:01.398Z,2.65
2023-02-03T03:45:49.456Z,3.15
2023-02-03T03:48:32.446Z,1.17
2023-02-03T03:51:20.136Z,1.23
2023-02-03T03:53:47.616Z,1.95
2023-02-03T03:56:17.595Z,2.88
2023-02-03T03:58:45.359Z,3.10
2023-02-03T04:01:12.172Z,4.90
2023-02-03T04:03:41.220Z,5.13
2023-02-03T04:06:07.912Z,4.60
2023-02-03T04:08:34.537Z,4.47
2023-02-03T04:11:01.284Z,2.72
2023-02-03T04:13:27.884Z,4.85
2023-02-03T04:15:54.623Z,3.88
2023-02-03T04:18:21.324Z,11.20
2023-02-03T04:20:48.410Z,3.75
2023-02-03T04:23:15.126Z,7.35
2023-02-03T04:25:42.019Z,5.43
2023-02-03T04:28:08.982Z,2.58
2023-02-03T04:30:35.650Z,2.50
2023-02-03T04:33:02.365Z,4.47
2023-02-03T04:35:29.072Z,2.28
2023-02-03T04:37:55.742Z,11.27
2023-02-03T04:40:22.341Z,5.00
2023-02-03T04:42:49.052Z,3.22
2023-02-03T04:45:15.712Z,2.08
2023-02-03T04:47:42.395Z,1.77
2023-02-03T04:50:09.381Z,2.95
2023-02-03T04:52:36.002Z,1.70
2023-02-03T04:55:04.030Z,2.75
2023-02-03T04:57:30.919Z,1.95
2023-02-03T04:59:57.568Z,5.07
2023-02-03T05:02:24.216Z,4.50
2023-02-03T05:04:50.935Z,2.83
2023-02-03T05:07:17.559Z,2.53
2023-02-03T05:09:44.202Z,3.40
2023-02-03T05:12:10.850Z,4.50
2023-02-03T05:14:37.527Z,6.45
2023-02-03T05:17:04.173Z,17.05
2023-02-03T05:19:30.833Z,10.07
2023-02-03T05:21:57.495Z,14.13
2023-02-03T05:24:24.107Z,12.98
2023-02-03T05:26:50.792Z,14.65
2023-02-03T05:29:17.398Z,9.95
2023-02-03T05:31:44.143Z,8.82
2023-02-03T05:34:10.803Z,7.32
2023-02-03T05:36:37.416Z,12.10
2023-02-03T05:39:04.293Z,9.10
2023-02-03T05:41:49.835Z,8.52
2023-02-03T05:44:16.532Z,9.70
2023-02-03T05:46:43.150Z,12.52
2023-02-03T05:49:09.861Z,11.98
2023-02-03T05:51:36.495Z,14.77
2023-02-03T05:54:03.171Z,4.57
2023-02-03T05:56:29.778Z,12.02
2023-02-03T05:58:56.420Z,5.47
2023-02-03T06:01:23.079Z,8.00
2023-02-03T06:03:49.977Z,34.53
2023-02-03T06:06:16.699Z,8.57
2023-02-03T06:08:43.544Z,7.95
2023-02-03T06:11:10.532Z,4.32
2023-02-03T06:13:37.188Z,6.72
2023-02-03T06:16:04.013Z,4.63
2023-02-03T06:18:30.682Z,13.02
2023-02-03T06:20:57.396Z,19.90
2023-02-03T06:23:24.064Z,9.73
2023-02-03T06:25:51.124Z,11.60
2023-02-03T06:28:18.141Z,16.25
2023-02-03T06:30:45.108Z,11.73
2023-02-03T06:33:11.935Z,15.73
2023-02-03T06:35:38.629Z,15.68
2023-02-03T06:38:05.373Z,8.07
2023-02-03T06:40:31.979Z,10.52
2023-02-03T06:42:58.708Z,7.15
2023-02-03T06:45:25.877Z,10.20
2023-02-03T06:47:52.691Z,8.00
2023-02-03T06:50:19.383Z,9.82
2023-02-03T06:52:46.021Z,9.65
2023-02-03T06:55:12.801Z,9.10
2023-02-03T06:57:46.782Z,8.77
2023-02-03T07:00:16.167Z,4.30
2023-02-03T07:02:44.263Z,5.07
2023-02-03T07:05:10.984Z,4.80
2023-02-03T07:07:39.503Z,4.15
2023-02-03T07:10:06.804Z,5.50
2023-02-03T07:12:33.428Z,4.45
2023-02-03T07:15:00.095Z,2.90
2023-02-03T07:17:26.872Z,3.28
2023-02-03T07:19:53.615Z,2.42
2023-02-03T07:22:20.370Z,4.47
2023-02-03T07:24:47.061Z,4.57
2023-02-03T07:27:13.653Z,1.85
2023-02-03T07:29:40.343Z,2.65
2023-02-03T07:32:07.210Z,2.30
2023-02-03T07:34:33.866Z,2.83
2023-02-03T07:37:00.562Z,1.95
2023-02-03T07:39:27.173Z,2.75
2023-02-03T07:41:53.805Z,3.33
2023-02-03T07:44:20.444Z,1.98
2023-02-03T07:46:47.201Z,1.50
2023-02-03T07:49:14.196Z,1.70
2023-02-03T07:51:41.078Z,1.70
2023-02-03T07:54:07.910Z,1.00
2023-02-03T07:56:34.546Z,2.08
2023-02-03T07:59:01.497Z,5.00
2023-02-03T08:01:28.441Z,10.00
2023-02-03T08:03:55.442Z,3.42
2023-02-03T08:06:22.230Z,4.93
2023-02-03T08:08:48.871Z,2.22
2023-02-03T08:11:15.526Z,1.95
2023-02-03T08:13:42.186Z,2.50
2023-02-03T08:16:08.913Z,2.53
2023-02-03T08:18:35.597Z,2.40
2023-02-03T08:21:04.127Z,2.65
2023-02-03T08:23:31.189Z,6.93
2023-02-03T08:25:57.992Z,5.75
2023-02-03T08:28:24.655Z,3.00
2023-02-03T08:30:51.383Z,7.90
2023-02-03T08:33:18.126Z,4.25
2023-02-03T08:35:48.810Z,2.38
2023-02-03T08:38:15.660Z,5.22
2023-02-03T08:40:42.345Z,3.60
2023-02-03T08:43:09.123Z,2.33
2023-02-03T08:45:35.804Z,5.78
2023-02-03T08:48:02.574Z,3.17
2023-02-03T08:50:29.491Z,7.05
2023-02-03T08:52:56.313Z,2.25
2023-02-03T08:55:22.997Z,3.03
2023-02-03T08:57:49.716Z,2.80
2023-02-03T09:00:16.708Z,2.65
2023-02-03T09:02:43.391Z,5.55
2023-02-03T09:05:10.267Z,2.22
2023-02-03T09:07:36.961Z,5.45
2023-02-03T09:10:03.922Z,7.70
2023-02-03T09:12:30.622Z,5.20
2023-02-03T09:14:57.324Z,5.50
2023-02-03T09:17:24.037Z,1.52
2023-02-03T09:19:50.761Z,2.80
2023-02-03T09:22:17.432Z,2.75
2023-02-03T09:24:44.277Z,2.15
2023-02-03T09:27:11.080Z,2.08
2023-02-03T09:29:37.916Z,2.78
2023-02-03T09:32:08.915Z,4.72
2023-02-03T09:34:35.756Z,8.00
2023-02-03T09:37:02.483Z,1.00
2023-02-03T09:39:29.282Z,2.70
2023-02-03T09:42:33.921Z,8.93
2023-02-03T09:45:18.434Z,4.32
2023-02-03T09:47:45.444Z,6.20
2023-02-03T09:50:20.333Z,3.17
2023-02-03T09:52:47.553Z,1.98
2023-02-03T09:55:37.386Z,2.05
2023-02-03T09:58:13.055Z,3.15
2023-02-03T10:00:47.400Z,8.70
2023-02-03T10:03:20.315Z,4.45
2023-02-03T10:06:14.053Z,4.20
2023-02-03T10:09:06.790Z,1.25
2023-02-03T10:11:54.768Z,2.38
2023-02-03T10:15:00.279Z,3.63
2023-02-03T10:17:36.720Z,2.15
2023-02-03T10:20:09.305Z,5.80
2023-02-03T10:22:40.636Z,2.50
2023-02-03T10:25:24.802Z,2.60
2023-02-03T10:30:29.619Z,2.47
2023-02-03T10:33:00.497Z,2.65
2023-02-03T10:35:32.589Z,2.88
2023-02-03T10:37:59.479Z,1.85
2023-02-03T10:40:26.720Z,1.48
2023-02-03T10:43:12.021Z,3.47
2023-02-03T10:45:38.759Z,2.83
2023-02-03T10:48:07.295Z,3.30
2023-02-03T10:50:33.943Z,1.25
2023-02-03T10:53:23.284Z,1.35
2023-02-03T10:56:01.671Z,2.28
2023-02-03T10:58:29.541Z,2.85
2023-02-03T11:01:14.111Z,3.13
2023-02-03T11:03:54.588Z,0.90
2023-02-03T11:06:21.201Z,0.95
2023-02-03T11:08:48.726Z,3.42
2023-02-03T11:11:37.431Z,1.20
2023-02-03T11:14:04.060Z,1.70
2023-02-03T11:16:30.955Z,1.48
2023-02-03T11:19:03.817Z,4.90
2023-02-03T11:21:32.461Z,2.78
2023-02-03T11:24:21.038Z,1.48
2023-02-03T11:27:09.397Z,3.40
2023-02-03T11:29:37.480Z,2.13
2023-02-03T11:32:49.444Z,1.05
2023-02-03T11:35:26.289Z,3.03
2023-02-03T11:37:56.296Z,0.93
2023-02-03T11:40:26.331Z,0.82
2023-02-03T11:42:53.080Z,1.15
2023-02-03T11:45:29.454Z,2.00
2023-02-03T11:48:11.004Z,1.85
2023-02-03T11:50:54.977Z,0.63
2023-02-03T11:54:00.554Z,0.40
2023-02-03T11:56:39.199Z,0.80
2023-02-03T11:59:14.733Z,2.95
2023-02-03T12:01:57.599Z,1.33
2023-02-03T12:04:35.873Z,0.75
2023-02-03T12:07:17.660Z,1.42
2023-02-03T12:09:46.407Z,2.15
2023-02-03T12:12:20.111Z,1.85
2023-02-03T12:14:55.623Z,1.15
2023-02-03T12:17:25.407Z,1.00
2023-02-03T12:20:29.403Z,6.90
2023-02-03T12:23:33.065Z,1.00
2023-02-03T12:26:02.701Z,1.73
2023-02-03T12:28:43.849Z,0.82
2023-02-03T12:31:29.493Z,1.90
2023-02-03T12:34:13.504Z,2.05
2023-02-03T12:36:41.788Z,1.20
2023-02-03T12:39:15.159Z,1.20
2023-02-03T12:41:45.389Z,3.67
2023-02-03T12:44:38.205Z,1.10
2023-02-03T12:47:09.299Z,1.15
2023-02-03T12:49:52.636Z,1.15
2023-02-03T12:52:38.959Z,1.40
2023-02-03T12:55:27.391Z,1.38
2023-02-03T12:58:18.204Z,2.45
2023-02-03T13:01:06.276Z,2.50
2023-02-03T13:03:54.423Z,2.75
2023-02-03T13:06:27.971Z,4.40
2023-02-03T13:09:02.887Z,3.03
2023-02-03T13:11:46.644Z,3.05
2023-02-03T13:14:31.914Z,1.77
2023-02-03T13:17:01.954Z,1.23
2023-02-03T13:19:32.146Z,2.67
2023-02-03T13:21:58.794Z,1.75
2023-02-03T13:24:25.494Z,1.52
2023-02-03T13:27:26.222Z,1.67
2023-02-03T13:30:08.823Z,2.17
2023-02-03T13:32:56.894Z,0.90
2023-02-03T13:35:33.866Z,3.05
2023-02-03T13:38:13.312Z,3.75
2023-02-03T13:41:01.625Z,1.15
2023-02-03T13:43:38.252Z,1.25
2023-02-03T13:46:07.932Z,5.50
2023-02-03T13:48:35.513Z,6.50
2023-02-03T13:51:13.799Z,1.23
2023-02-03T13:53:40.799Z,2.00
2023-02-03T13:56:09.305Z,5.95
2023-02-03T13:58:38.175Z,15.10
2023-02-03T14:01:06.134Z,6.82
2023-02-03T14:03:42.015Z,2.05
2023-02-03T14:06:30.832Z,2.53
2023-02-03T14:09:00.508Z,5.32
2023-02-03T14:11:36.273Z,1.77
2023-02-03T14:14:05.715Z,5.35
2023-02-03T14:16:35.966Z,7.90
2023-02-03T14:19:02.695Z,5.03
2023-02-03T14:21:36.958Z,6.43
2023-02-03T14:24:09.290Z,3.47
2023-02-03T14:26:38.807Z,2.55
2023-02-03T14:29:06.172Z,3.83
2023-02-03T14:31:33.070Z,1.52
2023-02-03T14:34:10.096Z,3.03
2023-02-03T14:36:45.822Z,20.70
2023-02-03T14:39:18.665Z,4.53
2023-02-03T14:42:03.552Z,2.13
2023-02-03T14:45:07.490Z,3.90
2023-02-03T14:47:34.071Z,7.40
2023-02-03T14:50:34.158Z,8.40
2023-02-03T14:53:39.018Z,17.67
2023-02-03T14:58:49.749Z,12.63
2023-02-03T15:01:42.863Z,5.60
2023-02-03T15:04:09.542Z,6.50
2023-02-03T15:06:41.197Z,6.22
2023-02-03T15:09:45.970Z,13.40
2023-02-03T15:14:45.868Z,4.35
2023-02-03T15:17:18.874Z,5.25
2023-02-03T15:19:45.800Z,5.53
2023-02-03T15:22:26.663Z,4.70
2023-02-03T15:24:56.014Z,9.02
2023-02-03T15:27:27.313Z,10.57
2023-02-03T15:29:54.441Z,6.40
2023-02-03T15:32:31.041Z,8.57
2023-02-03T15:34:57.825Z,2.78
2023-02-03T15:37:48.231Z,13.20
2023-02-03T15:40:18.871Z,7.57
2023-02-03T15:42:58.933Z,23.38
2023-02-03T15:45:46.060Z,5.55
2023-02-03T15:48:23.975Z,13.05
2023-02-03T15:50:53.630Z,6.78
2023-02-03T15:53:29.678Z,6.28
2023-02-03T15:56:05.472Z,5.22
2023-02-03T15:58:44.808Z,6.72
2023-02-03T16:01:17.964Z,6.18
2023-02-03T16:03:55.111Z,6.40
2023-02-03T16:06:30.649Z,11.32
2023-02-03T16:08:58.836Z,20.13
2023-02-03T16:11:28.413Z,13.40
2023-02-03T16:13:59.740Z,9.52
2023-02-03T16:16:29.161Z,13.82
2023-02-03T16:19:01.531Z,14.05
2023-02-03T16:21:29.530Z,13.38
2023-02-03T16:23:56.412Z,16.90
2023-02-03T16:26:24.914Z,13.93
2023-02-03T16:29:16.323Z,16.55
2023-02-03T16:32:04.397Z,11.80
2023-02-03T16:34:49.537Z,11.43
2023-02-03T16:37:45.888Z,11.68
2023-02-03T16:40:31.962Z,16.35
2023-02-03T16:43:17.057Z,9.65
2023-02-03T16:46:02.507Z,10.10
2023-02-03T16:48:47.749Z,15.95
2023-02-03T16:51:18.516Z,13.02
2023-02-03T16:53:45.606Z,16.58
2023-02-03T16:56:12.491Z,12.70
2023-02-03T16:58:39.251Z,11.43
2023-02-03T17:01:06.468Z,6.65
2023-02-03T17:03:36.376Z,5.97
2023-02-03T17:06:08.111Z,7.20
2023-02-03T17:08:34.880Z,6.78
2023-02-03T17:11:13.527Z,9.15
2023-02-03T17:13:40.487Z,6.82
2023-02-03T17:16:14.659Z,13.70
2023-02-03T17:18:41.381Z,10.35
2023-02-03T17:21:09.963Z,11.93
2023-02-03T17:23:36.700Z,15.38
2023-02-03T17:26:03.468Z,19.98
2023-02-03T17:28:30.063Z,13.93
2023-02-03T17:30:58.355Z,24.00
2023-02-03T17:33:25.220Z,15.40
2023-02-03T17:36:03.624Z,17.63
2023-02-03T17:38:30.817Z,9.80
2023-02-03T17:54:39.721Z,8.57
2023-02-03T17:57:06.473Z,6.43
2023-02-03T17:59:35.040Z,6.15
2023-02-03T18:02:01.907Z,4.55
2023-02-03T18:04:28.680Z,6.90
2023-02-03T18:06:55.364Z,4.35
2023-02-03T18:09:22.062Z,6.10
2023-02-03T18:11:48.671Z,4.35
2023-02-03T18:14:16.323Z,5.63
2023-02-03T18:16:43.080Z,9.85
2023-02-03T18:19:12.985Z,5.88
2023-02-03T18:21:39.817Z,9.05
2023-02-03T18:24:06.676Z,16.40
2023-02-03T18:26:34.506Z,7.40
2023-02-03T18:29:01.347Z,10.35
2023-02-03T18:31:28.146Z,11.05
2023-02-03T18:33:54.913Z,23.23
2023-02-03T18:36:21.564Z,38.10
2023-02-03T18:38:48.401Z,10.95
2023-02-03T18:41:16.191Z,46.30
2023-02-03T18:43:42.943Z,29.38
2023-02-03T18:46:10.693Z,15.27
2023-02-03T18:48:37.443Z,18.88
2023-02-03T18:51:08.227Z,10.85
2023-02-03T18:53:34.958Z,10.05
2023-02-03T18:56:01.729Z,15.43
2023-02-03T18:58:28.686Z,8.18
2023-02-03T19:00:56.133Z,5.30
2023-02-03T19:03:24.843Z,9.80
2023-02-03T19:05:51.485Z,4.95
2023-02-03T19:08:18.147Z,8.07
2023-02-03T19:10:44.742Z,8.27
2023-02-03T19:13:11.649Z,6.28
2023-02-03T19:15:38.525Z,34.20
2023-02-03T19:18:05.293Z,13.52
2023-02-03T19:20:31.942Z,20.75
2023-02-03T19:22:58.727Z,8.98
2023-02-03T19:25:27.850Z,8.38
2023-02-03T19:27:54.547Z,27.65
2023-02-03T19:30:22.074Z,25.20
2023-02-03T19:32:48.740Z,19.65
2023-02-03T19:35:15.625Z,12.55
2023-02-03T19:37:42.397Z,9.30
2023-02-03T19:40:09.641Z,6.20
2023-02-03T19:42:36.332Z,10.60
2023-02-03T19:45:03.005Z,11.05
2023-02-03T19:47:29.669Z,4.53
2023-02-03T19:49:56.392Z,4.72
2023-02-03T19:52:23.028Z,1.80
2023-02-03T19:54:49.652Z,8.25
2023-02-03T19:57:16.429Z,2.58
2023-02-03T19:59:43.064Z,9.05
2023-02-03T20:02:14.301Z,14.25
2023-02-03T20:04:41.805Z,10.45
2023-02-03T20:07:08.554Z,20.83
2023-02-03T20:09:35.240Z,28.05
2023-02-03T20:12:01.942Z,12.35
2023-02-03T20:14:28.653Z,3.75
2023-02-03T20:16:55.361Z,4.65
2023-02-03T20:19:22.146Z,6.60
2023-02-03T20:21:48.798Z,3.45
2023-02-03T20:24:15.490Z,2.65
2023-02-03T20:26:42.084Z,2.95
2023-02-03T20:29:08.732Z,6.07
2023-02-03T20:31:35.753Z,3.38
2023-02-03T20:34:04.147Z,5.60
2023-02-03T20:36:30.925Z,12.00
2023-02-03T20:38:57.587Z,5.63
2023-02-03T20:41:24.260Z,4.47
2023-02-03T20:43:50.841Z,4.72
2023-02-03T20:46:18.472Z,3.90
2023-02-03T20:48:45.233Z,3.50
2023-02-03T20:51:13.044Z,4.82
2023-02-03T20:53:39.852Z,4.82
2023-02-03T20:56:14.053Z,6.43
2023-02-03T20:58:40.947Z,1.67
2023-02-03T21:01:33.901Z,3.83
2023-02-03T21:04:19.177Z,4.55
2023-02-03T21:06:45.837Z,2.28
2023-02-03T21:09:16.287Z,3.38
2023-02-03T21:11:43.237Z,3.85
2023-02-03T21:14:35.003Z,0.75
2023-02-03T21:17:01.765Z,3.03
2023-02-03T21:19:32.711Z,1.20
2023-02-03T21:21:59.940Z,2.38
2023-02-03T21:24:33.067Z,2.83
2023-02-03T21:27:00.344Z,1.33
2023-02-03T21:29:30.075Z,1.45
2023-02-03T21:31:56.982Z,6.32
2023-02-03T21:34:34.375Z,5.32
2023-02-03T21:37:37.074Z,1.92
2023-02-03T21:40:17.426Z,2.88
2023-02-03T21:42:45.964Z,3.67
2023-02-03T21:45:19.348Z,2.50
2023-02-03T21:47:49.145Z,4.63
2023-02-03T21:50:29.856Z,1.13
2023-02-03T21:53:14.277Z,2.38
2023-02-03T21:58:34.689Z,1.17
2023-02-03T22:01:02.752Z,2.58
2023-02-03T22:03:40.737Z,1.52
2023-02-03T22:06:16.618Z,2.78
2023-02-03T22:08:47.844Z,6.68
2023-02-03T22:11:15.341Z,7.35
2023-02-03T22:13:42.786Z,4.35
2023-02-03T22:16:09.697Z,2.10
2023-02-03T22:18:37.615Z,1.92
2023-02-03T22:21:04.333Z,1.73
2023-02-03T22:23:31.785Z,2.97
2023-02-03T22:25:58.532Z,0.73
2023-02-03T22:28:25.399Z,1.33
2023-02-03T22:30:52.448Z,2.08
2023-02-03T22:33:19.255Z,2.00
2023-02-03T22:35:45.877Z,1.10
2023-02-03T22:38:12.626Z,1.58
2023-02-03T22:40:39.346Z,1.55
2023-02-03T22:43:06.033Z,0.88
2023-02-03T22:45:32.713Z,1.13
2023-02-03T22:48:00.382Z,2.10
2023-02-03T22:50:35.535Z,3.15
2023-02-03T22:53:07.063Z,1.85
2023-02-03T22:55:33.821Z,1.60
2023-02-03T22:58:00.498Z,1.05
2023-02-03T23:00:27.270Z,3.90
2023-02-03T23:02:54.401Z,0.90
2023-02-03T23:05:21.106Z,1.40
2023-02-03T23:07:48.157Z,3.05
2023-02-03T23:10:19.918Z,0.82
2023-02-03T23:12:46.628Z,1.20
2023-02-03T23:15:13.559Z,0.98
2023-02-03T23:17:40.531Z,2.95
2023-02-03T23:20:07.972Z,3.15
2023-02-03T23:22:34.856Z,2.65
2023-02-03T23:25:02.545Z,2.40
2023-02-03T23:27:29.263Z,1.25
2023-02-03T23:29:55.984Z,1.23
2023-02-03T23:32:22.833Z,0.50
2023-02-03T23:35:07.893Z,1.88
2023-02-03T23:37:34.485Z,4.97
2023-02-03T23:40:01.140Z,3.08
2023-02-03T23:42:27.738Z,1.50
2023-02-03T23:44:55.902Z,1.25
2023-02-03T23:47:22.650Z,3.10
2023-02-03T23:49:49.351Z,1.13
2023-02-03T23:52:15.995Z,2.10
2023-02-03T23:54:42.650Z,3.00
2023-02-03T23:57:09.452Z,2.28
2023-02-03T23:59:36.117Z,2.05
